Time;durP1;ratioP1;P1;durP2;ratioP2;P2;SDS_P1;SDS_P2;PMS_P1;PMS_P2;Temp;Humidity;BMP_temperature;BMP_pressure;BME280_temperature;BME280_humidity;BME280_pressure;Samples;Min_cycle;Max_cycle;Signal;HPM_P1;HPM_P2
2024/01/17 00:01:22;;;;;;;10.07;8.27;;;;;;;-144.30;70.00;86601.34;5092501;28;20199;-67
2024/01/17 00:03:49;;;;;;;14.97;8.97;;;;;;;-144.30;70.36;86625.19;5092476;28;20206;-67
2024/01/17 00:06:16;;;;;;;11.83;8.47;;;;;;;-144.30;70.60;86623.22;5092695;28;20329;-67
2024/01/17 00:08:44;;;;;;;14.00;8.60;;;;;;;-144.30;70.73;86653.03;5092305;28;20206;-67
2024/01/17 00:11:11;;;;;;;10.60;7.77;;;;;;;-144.30;70.47;86591.38;5092388;28;20227;-68
2024/01/17 00:13:38;;;;;;;10.60;7.93;;;;;;;-144.30;71.10;86633.16;5092082;28;20296;-68
2024/01/17 00:16:05;;;;;;;13.27;8.47;;;;;;;-144.30;71.23;86579.47;5092201;28;20199;-68
2024/01/17 00:18:34;;;;;;;10.97;7.37;;;;;;;-144.30;71.16;86609.28;5092151;28;20274;-67
2024/01/17 00:21:01;;;;;;;12.10;8.30;;;;;;;-144.30;71.09;86583.44;5092196;28;20203;-59
2024/01/17 00:23:29;;;;;;;13.07;8.93;;;;;;;-144.30;70.79;86641.09;5092067;28;20199;-59
2024/01/17 00:25:56;;;;;;;13.17;8.57;;;;;;;-144.30;70.29;86625.19;5092115;28;20199;-67
2024/01/17 00:28:22;;;;;;;13.70;9.20;;;;;;;-144.30;70.38;86609.28;5091674;28;20266;-68
2024/01/17 00:30:49;;;;;;;12.87;8.83;;;;;;;-144.30;70.44;86629.19;5091802;28;20201;-67
2024/01/17 00:33:16;;;;;;;15.43;9.03;;;;;;;-144.30;70.42;86609.28;5092194;28;20203;-68
2024/01/17 00:35:44;;;;;;;16.17;9.40;;;;;;;-144.30;70.53;86621.22;5091873;28;20222;-67
2024/01/17 00:38:11;;;;;;;14.47;9.63;;;;;;;-144.30;70.51;86635.13;5091942;28;20199;-68
2024/01/17 00:40:39;;;;;;;16.70;9.63;;;;;;;-144.30;70.89;86643.09;5091459;28;20195;-67
2024/01/17 00:43:07;;;;;;;13.10;9.10;;;;;;;-144.30;70.03;86629.19;5091659;28;20244;-68
2024/01/17 00:45:34;;;;;;;13.10;9.20;;;;;;;-144.30;69.69;86615.25;5091447;28;20202;-68
2024/01/17 00:48:01;;;;;;;16.83;9.37;;;;;;;-144.30;69.47;86607.31;5091689;28;20203;-68
2024/01/17 00:50:28;;;;;;;12.37;8.23;;;;;;;-144.30;69.40;86643.09;5091807;28;20195;-68
2024/01/17 00:52:56;;;;;;;13.90;8.80;;;;;;;-144.30;69.55;86587.41;5091983;28;20309;-68
2024/01/17 00:55:23;;;;;;;13.87;8.53;;;;;;;-144.30;69.44;86621.22;5091445;28;20667;-67
2024/01/17 00:57:50;;;;;;;14.47;9.03;;;;;;;-144.30;69.63;86633.16;5091605;28;20574;-66
2024/01/17 01:00:17;;;;;;;12.60;8.53;;;;;;;-144.30;70.08;86593.38;5091590;28;20241;-67
2024/01/17 01:02:44;;;;;;;14.60;8.90;;;;;;;-144.30;69.83;86637.13;5091293;28;20209;-59
2024/01/17 01:05:12;;;;;;;13.27;8.93;;;;;;;-144.30;69.67;86571.50;5091212;28;20234;-60
2024/01/17 01:07:39;;;;;;;15.97;9.93;;;;;;;-144.30;69.88;86619.22;5090985;28;20284;-58
2024/01/17 01:10:08;;;;;;;13.50;9.37;;;;;;;-144.30;70.53;86617.25;5091160;28;20672;-58
2024/01/17 01:12:35;;;;;;;14.27;9.27;;;;;;;-144.30;70.93;86599.34;5091251;28;20219;-60
2024/01/17 01:15:02;;;;;;;11.93;8.33;;;;;;;-144.30;70.79;86615.25;5091444;28;20209;-59
2024/01/17 01:17:29;;;;;;;16.80;9.40;;;;;;;-144.30;70.84;86617.25;5091193;28;20226;-59
2024/01/17 01:19:56;;;;;;;12.00;8.93;;;;;;;-144.30;71.59;86662.97;5090959;28;20195;-59
2024/01/17 01:22:23;;;;;;;11.83;8.50;;;;;;;-144.30;71.66;86641.09;5090630;28;20238;-59
2024/01/17 01:24:50;;;;;;;18.77;9.20;;;;;;;-144.30;71.09;86615.25;5090752;28;20209;-59
2024/01/17 01:27:18;;;;;;;16.73;9.83;;;;;;;-144.30;71.40;86645.09;5090567;28;20231;-60
2024/01/17 01:29:45;;;;;;;16.97;8.90;;;;;;;-144.30;71.79;86633.16;5090769;28;20224;-59
2024/01/17 01:32:12;;;;;;;13.50;8.93;;;;;;;-144.30;71.84;86657.03;5090612;28;20219;-58
2024/01/17 01:34:39;;;;;;;13.50;8.90;;;;;;;-144.30;71.94;86625.19;5090636;28;20676;-60
2024/01/17 01:37:06;;;;;;;18.63;10.50;;;;;;;-144.30;71.74;86633.16;5090729;28;20206;-58
2024/01/17 01:39:33;;;;;;;17.60;10.23;;;;;;;-144.30;72.14;86625.19;5090853;28;20209;-58
2024/01/17 01:41:59;;;;;;;18.33;11.00;;;;;;;-144.30;71.91;86601.34;5090629;28;20192;-59
2024/01/17 01:44:28;;;;;;;18.03;11.07;;;;;;;-144.30;71.76;86649.06;5090665;28;20205;-67
2024/01/17 01:46:55;;;;;;;18.40;10.80;;;;;;;-144.30;72.03;86619.22;5090458;28;20760;-68
2024/01/17 01:49:22;;;;;;;22.90;11.93;;;;;;;-144.30;72.38;86651.06;5090669;28;20695;-67
2024/01/17 01:51:51;;;;;;;20.43;12.37;;;;;;;-144.30;72.49;86649.06;5090136;28;20609;-67
2024/01/17 01:54:21;;;;;;;15.53;11.17;;;;;;;-144.30;73.03;86637.13;5090537;28;20199;-67
2024/01/17 01:56:49;;;;;;;22.23;12.20;;;;;;;-144.30;73.06;86637.13;5090603;28;20268;-67
2024/01/17 01:59:17;;;;;;;26.87;12.83;;;;;;;-144.30;73.17;86661.00;5090108;28;20203;-68
2024/01/17 02:01:46;;;;;;;33.97;13.27;;;;;;;-144.30;73.58;86664.97;5090213;28;20280;-68
2024/01/17 02:04:13;;;;;;;26.63;12.60;;;;;;;-144.30;73.81;86645.09;5090349;28;20260;-67
2024/01/17 02:06:42;;;;;;;25.93;12.70;;;;;;;-144.30;74.11;86595.38;5090315;28;20300;-67
2024/01/17 02:09:09;;;;;;;27.07;12.37;;;;;;;-144.30;74.41;86659.00;5090444;28;20655;-66
2024/01/17 02:11:38;;;;;;;23.83;13.23;;;;;;;-144.30;74.56;86664.97;5090259;28;20619;-59
2024/01/17 02:14:05;;;;;;;19.77;12.70;;;;;;;-144.30;74.65;86680.88;5090409;28;20225;-58
2024/01/17 02:16:33;;;;;;;20.53;11.83;;;;;;;-144.30;74.72;86666.97;5090197;28;20655;-60
2024/01/17 02:19:02;;;;;;;20.87;12.57;;;;;;;-144.30;74.86;86621.22;5090067;28;20195;-59
2024/01/17 02:21:29;;;;;;;22.03;13.00;;;;;;;-144.30;75.01;86664.97;5090137;28;20295;-67
2024/01/17 02:24:14;;;;;;;20.07;12.20;;;;;;;-144.30;75.15;86655.03;5064488;28;20666;-68
2024/01/17 02:26:41;;;;;;;20.23;12.10;;;;;;;-144.30;74.97;86641.09;5049510;28;20670;-67
2024/01/17 02:29:08;;;;;;;21.23;11.87;;;;;;;-144.30;74.77;86668.94;5049828;28;20599;-68
2024/01/17 02:31:36;;;;;;;17.80;11.30;;;;;;;-144.30;74.89;86674.91;5049924;28;20730;-68
2024/01/17 02:34:03;;;;;;;17.57;11.47;;;;;;;-144.30;74.86;86664.97;5049745;28;20203;-68
2024/01/17 02:36:30;;;;;;;21.27;11.20;;;;;;;-144.30;74.48;86670.94;5049754;28;20211;-67
2024/01/17 02:38:59;;;;;;;15.97;10.57;;;;;;;-144.30;74.47;86661.00;5049731;28;20199;-67
2024/01/17 02:41:26;;;;;;;18.93;11.20;;;;;;;-144.30;74.43;86688.84;5049614;28;20200;-66
2024/01/17 02:43:52;;;;;;;17.10;10.83;;;;;;;-144.30;74.89;86645.09;5049629;28;20575;-65
2024/01/17 02:46:19;;;;;;;20.27;11.23;;;;;;;-144.30;74.89;86661.00;5049922;28;20227;-64
2024/01/17 02:48:46;;;;;;;16.97;11.23;;;;;;;-144.30;74.88;86661.00;5049809;28;20685;-67
2024/01/17 02:51:13;;;;;;;17.40;11.67;;;;;;;-144.30;74.79;86633.16;5049775;28;20280;-66
2024/01/17 02:53:40;;;;;;;19.27;11.53;;;;;;;-144.30;74.65;86661.00;5049516;28;20227;-67
2024/01/17 02:56:08;;;;;;;20.73;12.03;;;;;;;-144.30;74.89;86595.38;5049777;28;20198;-67
2024/01/17 02:58:35;;;;;;;24.73;11.80;;;;;;;-144.30;75.36;86625.19;5049706;28;20200;-68
2024/01/17 03:01:03;;;;;;;19.73;11.80;;;;;;;-144.30;75.35;86659.00;5049479;28;20198;-67
2024/01/17 03:03:30;;;;;;;20.13;11.37;;;;;;;-144.30;75.54;86686.84;5049609;28;20206;-65
2024/01/17 03:05:57;;;;;;;21.33;11.70;;;;;;;-144.30;75.69;86637.13;5049470;28;20222;-67
2024/01/17 03:08:24;;;;;;;18.27;11.20;;;;;;;-144.30;75.76;86676.91;5049312;28;20208;-66
2024/01/17 03:10:51;;;;;;;16.83;10.97;;;;;;;-144.30;75.55;86674.91;5051675;28;20698;-58
2024/01/17 03:13:19;;;;;;;16.47;10.90;;;;;;;-144.30;75.99;86684.84;5053286;28;20222;-58
2024/01/17 03:15:47;;;;;;;19.40;11.87;;;;;;;-144.30;76.68;86641.09;5053275;28;20598;-59
2024/01/17 03:18:16;;;;;;;18.97;11.40;;;;;;;-144.30;76.81;86682.88;5053294;28;20203;-59
2024/01/17 03:20:43;;;;;;;14.70;10.10;;;;;;;-144.30;76.85;86704.75;5053087;28;20199;-59
2024/01/17 03:23:10;;;;;;;14.43;9.87;;;;;;;-144.30;76.87;86696.78;5053210;28;20214;-66
2024/01/17 03:25:37;;;;;;;18.43;10.57;;;;;;;-144.30;76.85;86672.94;5052668;28;20203;-67
2024/01/17 03:28:04;;;;;;;17.00;10.53;;;;;;;-144.30;77.16;86692.81;5052850;28;20235;-67
2024/01/17 03:30:34;;;;;;;15.40;10.30;;;;;;;-144.30;77.19;86692.81;5053242;28;20204;-67
2024/01/17 03:33:01;;;;;;;14.43;10.07;;;;;;;-144.30;77.33;86659.00;5052873;28;20220;-68
2024/01/17 03:35:27;;;;;;;21.47;12.13;;;;;;;-144.30;77.06;86674.91;5052974;28;20200;-68
2024/01/17 03:37:54;;;;;;;16.27;10.17;;;;;;;-144.30;77.35;86649.06;5052727;28;20196;-59
2024/01/17 03:40:21;;;;;;;13.97;9.53;;;;;;;-144.30;77.48;86651.06;5052868;28;20691;-59
2024/01/17 03:42:48;;;;;;;16.17;9.70;;;;;;;-144.30;77.05;86645.09;5052513;28;20197;-59
2024/01/17 03:45:15;;;;;;;19.27;10.93;;;;;;;-144.30;77.30;86688.84;5052485;28;20203;-58
2024/01/17 03:47:44;;;;;;;18.13;10.93;;;;;;;-144.30;76.95;86680.88;5052603;28;20222;-58
2024/01/17 03:50:11;;;;;;;17.93;10.60;;;;;;;-144.30;76.45;86670.94;5052602;28;20198;-59
2024/01/17 03:52:37;;;;;;;14.77;10.40;;;;;;;-144.30;76.31;86692.81;5052008;28;20223;-58
2024/01/17 03:55:05;;;;;;;19.60;11.30;;;;;;;-144.30;76.54;86674.91;5052346;28;20209;-58
2024/01/17 03:57:32;;;;;;;20.43;10.83;;;;;;;-144.30;76.66;86676.91;5052739;28;20542;-61
2024/01/17 03:59:59;;;;;;;18.93;11.53;;;;;;;-144.30;76.48;86635.13;5052100;28;20212;-62
2024/01/17 04:02:26;;;;;;;19.77;11.77;;;;;;;-144.30;77.75;86688.84;5051244;28;20219;-58
2024/01/17 04:04:54;;;;;;;19.10;11.70;;;;;;;-144.30;77.63;86698.78;5051920;28;20591;-60
2024/01/17 04:07:22;;;;;;;20.13;11.67;;;;;;;-144.30;78.18;86653.03;5052215;28;20199;-58
2024/01/17 04:09:49;;;;;;;22.33;12.63;;;;;;;-144.30;77.99;86561.56;5050472;28;20198;-59
2024/01/17 04:12:16;;;;;;;20.73;12.97;;;;;;;-144.30;78.06;86674.91;5052253;28;20223;-58
2024/01/17 04:14:43;;;;;;;19.43;11.73;;;;;;;-144.30;78.41;86704.75;5051464;28;20204;-67
2024/01/17 04:17:11;;;;;;;20.53;12.37;;;;;;;-144.30;78.72;86863.84;5051900;28;20204;-59
2024/01/17 04:19:38;;;;;;;25.43;13.43;;;;;;;-144.30;78.44;86700.78;5051860;28;20241;-59
2024/01/17 04:22:06;;;;;;;19.90;12.43;;;;;;;-144.30;78.42;86704.75;5051418;28;20243;-60
2024/01/17 04:24:33;;;;;;;21.43;12.00;;;;;;;-144.30;78.57;86706.72;5051886;28;20698;-58
2024/01/17 04:27:00;;;;;;;21.07;12.27;;;;;;;-144.30;78.69;86680.88;5051677;28;20239;-59
2024/01/17 04:29:27;;;;;;;24.33;13.77;;;;;;;-144.30;78.64;86696.78;5051836;28;20294;-58
2024/01/17 04:31:54;;;;;;;26.20;14.33;;;;;;;-144.30;78.69;86712.69;5065248;28;20216;-59
2024/01/17 04:34:21;;;;;;;25.93;14.23;;;;;;;-144.30;78.62;86662.97;5067722;28;20251;-58
2024/01/17 04:36:47;;;;;;;25.37;14.17;;;;;;;-144.30;79.00;86641.09;5070877;28;20195;-60
2024/01/17 04:39:16;;;;;;;27.30;14.10;;;;;;;-144.30;79.00;86686.84;5071304;28;20202;-66
2024/01/17 04:41:43;;;;;;;22.07;13.70;;;;;;;-144.30;79.27;86674.91;5068308;28;20199;-67
2024/01/17 04:44:10;;;;;;;25.43;13.77;;;;;;;-144.30;79.08;86672.94;5071245;28;20203;-67
2024/01/17 04:46:38;;;;;;;26.83;13.87;;;;;;;-144.30;79.04;86686.84;5071378;28;20206;-59
2024/01/17 04:49:06;;;;;;;23.43;13.97;;;;;;;-144.30;79.62;86690.81;5071460;28;20572;-60
2024/01/17 04:51:32;;;;;;;25.00;14.13;;;;;;;-144.30;80.32;86704.75;5071105;28;20192;-60
2024/01/17 04:53:59;;;;;;;25.43;14.30;;;;;;;-144.30;80.70;86712.69;5065057;28;20221;-60
2024/01/17 04:56:28;;;;;;;25.23;14.07;;;;;;;-144.30;80.70;86708.72;5061954;28;20273;-60
2024/01/17 04:58:54;;;;;;;23.13;13.33;;;;;;;-144.30;80.66;86567.53;5053349;28;20206;-61
2024/01/17 05:01:21;;;;;;;24.70;14.23;;;;;;;-144.30;80.68;86704.75;5065248;28;20272;-60
2024/01/17 05:03:48;;;;;;;22.83;13.67;;;;;;;-144.30;80.27;86686.84;5070354;28;20203;-62
2024/01/17 05:06:15;;;;;;;26.10;13.87;;;;;;;-144.30;80.87;86643.09;5065253;28;20204;-61
2024/01/17 05:08:42;;;;;;;28.17;14.27;;;;;;;-144.30;81.20;86706.72;5063233;28;20212;-62
2024/01/17 05:11:09;;;;;;;28.57;15.13;;;;;;;-144.30;81.26;86686.84;5061695;28;20241;-62
2024/01/17 05:13:38;;;;;;;28.80;15.77;;;;;;;-144.30;81.75;86686.84;5050637;28;20222;-65
2024/01/17 05:16:06;;;;;;;30.87;17.27;;;;;;;-144.30;82.10;86720.66;5050524;28;20655;-65
2024/01/17 05:18:33;;;;;;;33.83;17.47;;;;;;;-144.30;81.52;86704.75;5051085;28;20650;-65
2024/01/17 05:21:00;;;;;;;34.53;17.10;;;;;;;-144.30;81.46;86700.78;5051069;28;20229;-63
2024/01/17 05:23:27;;;;;;;36.63;18.00;;;;;;;-144.30;81.74;86710.72;5050161;28;20284;-56
2024/01/17 05:25:54;;;;;;;35.03;18.97;;;;;;;-144.30;83.21;86694.81;5063375;28;20208;-57
2024/01/17 05:28:21;;;;;;;32.27;18.27;;;;;;;-144.30;83.62;86708.72;5070684;28;20229;-61
2024/01/17 05:30:49;;;;;;;31.53;17.77;;;;;;;-144.30;83.87;86724.63;5070880;28;20210;-56
2024/01/17 05:33:16;;;;;;;39.80;18.93;;;;;;;-144.30;83.24;86696.78;5084067;28;20233;-56
2024/01/17 05:35:43;;;;;;;34.13;18.23;;;;;;;-144.30;83.10;86744.53;5090091;28;20583;-56
2024/01/17 05:38:10;;;;;;;36.27;20.33;;;;;;;-144.30;83.27;86696.78;5090080;28;20291;-63
2024/01/17 05:40:36;;;;;;;36.57;19.67;;;;;;;-144.30;82.82;86700.78;5090137;28;20202;-63
2024/01/17 05:43:04;;;;;;;34.13;18.23;;;;;;;-144.30;82.66;86595.38;5089871;28;20196;-64
2024/01/17 05:45:31;;;;;;;31.30;17.37;;;;;;;-144.30;82.10;86708.72;5090098;28;20576;-63
2024/01/17 05:48:00;;;;;;;31.13;16.77;;;;;;;-144.30;81.94;86668.94;5090455;28;20193;-56
2024/01/17 05:50:26;;;;;;;27.13;16.30;;;;;;;-144.30;81.12;86680.88;5091344;28;20201;-55
2024/01/17 05:52:53;;;;;;;27.30;14.13;;;;;;;-144.30;80.94;86736.56;5090963;28;20233;-63
2024/01/17 05:55:21;;;;;;;25.30;14.30;;;;;;;-144.30;80.91;86688.84;5091310;28;20203;-63
2024/01/17 05:57:48;;;;;;;27.17;13.83;;;;;;;-144.30;80.69;86702.75;5091108;28;20259;-54
2024/01/17 06:00:15;;;;;;;28.80;15.03;;;;;;;-144.30;80.55;86706.72;5091022;28;20297;-62
2024/01/17 06:02:43;;;;;;;27.33;14.30;;;;;;;-144.30;80.51;86710.72;5091121;28;20583;-63
2024/01/17 06:05:12;;;;;;;24.73;14.03;;;;;;;-144.30;79.92;86647.06;5091121;28;20228;-64
2024/01/17 06:07:40;;;;;;;26.63;14.10;;;;;;;-144.30;79.88;86706.72;5090810;28;20207;-55
2024/01/17 06:10:08;;;;;;;23.97;12.80;;;;;;;-144.30;79.95;86672.94;5090714;28;20200;-55
2024/01/17 06:12:35;;;;;;;22.55;13.40;;;;;;;-144.30;80.59;86702.75;5090683;28;20197;-54
2024/01/17 06:15:02;;;;;;;27.40;14.63;;;;;;;-144.30;80.96;86756.44;5090960;28;20550;-64
2024/01/17 06:17:29;;;;;;;30.23;14.90;;;;;;;-144.30;80.65;86722.66;5090855;28;20205;-64
2024/01/17 06:19:56;;;;;;;28.27;16.77;;;;;;;-144.30;80.37;86696.78;5090688;28;20193;-64
2024/01/17 06:22:24;;;;;;;31.53;18.70;;;;;;;-144.30;80.45;86722.66;5090931;28;20220;-62
2024/01/17 06:24:51;;;;;;;51.43;26.33;;;;;;;-144.30;80.28;86704.75;5090580;28;20736;-64
2024/01/17 06:27:18;;;;;;;53.23;28.50;;;;;;;-144.30;79.80;86692.81;5090564;28;20239;-63
2024/01/17 06:29:47;;;;;;;56.47;30.20;;;;;;;-144.30;80.02;86605.31;5090725;28;20576;-63
2024/01/17 06:32:14;;;;;;;67.97;33.90;;;;;;;-144.30;81.16;86694.81;5090763;28;20197;-53
2024/01/17 06:34:43;;;;;;;62.30;33.83;;;;;;;-144.30;82.44;86688.84;5090547;28;20260;-63
2024/01/17 06:37:10;;;;;;;68.07;36.13;;;;;;;-144.30;82.95;86690.81;5090568;28;20200;-55
2024/01/17 06:39:38;;;;;;;63.33;34.20;;;;;;;-144.30;82.30;86728.59;5090793;28;20201;-55
2024/01/17 06:42:06;;;;;;;55.67;30.93;;;;;;;-144.30;81.88;86690.81;5090412;28;20287;-63
2024/01/17 06:44:33;;;;;;;49.60;26.97;;;;;;;-144.30;80.81;86700.78;5092742;28;20197;-62
2024/01/17 06:47:00;;;;;;;43.73;23.07;;;;;;;-144.30;79.69;86704.75;5094573;28;20208;-63
2024/01/17 06:49:26;;;;;;;35.37;20.47;;;;;;;-144.30;78.33;86684.84;5094643;28;20599;-63
2024/01/17 06:51:53;;;;;;;31.90;20.27;;;;;;;-144.30;78.36;86692.81;5094578;28;20281;-61
2024/01/17 06:54:21;;;;;;;29.67;18.27;;;;;;;-144.30;77.28;86637.13;5094553;28;20654;-55
2024/01/17 06:56:49;;;;;;;31.20;17.27;;;;;;;-144.30;76.97;86682.88;5084897;28;20210;-57
2024/01/17 06:59:16;;;;;;;30.93;16.27;;;;;;;-144.30;76.06;86680.88;5073960;28;20206;-55
2024/01/17 07:01:43;;;;;;;23.67;14.13;;;;;;;-144.30;75.68;86670.94;5074002;28;20592;-55
2024/01/17 07:04:11;;;;;;;21.20;13.33;;;;;;;-144.30;74.92;86668.94;5073748;28;20591;-54
2024/01/17 07:06:38;;;;;;;22.20;11.97;;;;;;;-144.30;74.18;86680.88;5073802;28;20286;-55
2024/01/17 07:09:05;;;;;;;22.33;11.67;;;;;;;-144.30;74.03;86597.34;5073796;28;20205;-63
2024/01/17 07:11:32;;;;;;;18.57;10.10;;;;;;;-144.30;73.00;86657.03;5073609;28;20746;-63
2024/01/17 07:14:01;;;;;;;23.67;10.80;;;;;;;-144.30;72.84;86664.97;5072920;28;20220;-62
2024/01/17 07:16:28;;;;;;;17.00;10.20;;;;;;;-144.30;72.47;86625.19;5073352;28;20671;-62
2024/01/17 07:18:55;;;;;;;18.03;10.53;;;;;;;-144.30;71.82;86662.97;5072937;28;20295;-62
2024/01/17 07:21:22;;;;;;;22.90;9.90;;;;;;;-144.30;71.59;86643.09;5073189;28;20227;-63
2024/01/17 07:23:49;;;;;;;18.07;10.00;;;;;;;-144.30;71.09;86664.97;5072900;28;20214;-62
2024/01/17 07:26:16;;;;;;;16.83;9.70;;;;;;;-144.30;71.06;86643.09;5072976;28;20206;-62
2024/01/17 07:28:43;;;;;;;16.03;9.80;;;;;;;-144.30;70.12;86666.97;5072693;28;20274;-63
2024/01/17 07:31:12;;;;;;;17.47;9.83;;;;;;;-144.30;70.30;86605.31;5073007;28;20287;-63
2024/01/17 07:33:39;;;;;;;22.00;10.40;;;;;;;-144.30;70.02;86629.19;5072591;28;20232;-63
2024/01/17 07:36:06;;;;;;;15.20;9.70;;;;;;;-144.30;69.66;86666.97;5072956;28;20676;-64
2024/01/17 07:38:33;;;;;;;17.23;9.87;;;;;;;-144.30;68.94;86649.06;5073004;28;20581;-62
2024/01/17 07:41:00;;;;;;;18.63;9.70;;;;;;;-144.30;68.69;86627.19;5072849;28;20200;-55
2024/01/17 07:43:27;;;;;;;24.57;11.43;;;;;;;-144.30;68.40;86613.28;5072859;28;20191;-56
2024/01/17 07:45:54;;;;;;;17.70;10.30;;;;;;;-144.30;67.96;86603.31;5072614;28;20203;-54
2024/01/17 07:48:22;;;;;;;18.53;10.87;;;;;;;-144.30;67.41;86629.19;5072870;28;20192;-54
2024/01/17 07:50:49;;;;;;;17.30;9.80;;;;;;;-144.30;67.36;86617.25;5072557;28;20676;-63
2024/01/17 07:53:16;;;;;;;20.20;11.07;;;;;;;-144.30;67.06;86595.38;5072493;28;20304;-55
2024/01/17 07:55:43;;;;;;;20.70;10.23;;;;;;;-144.30;67.11;86599.34;5071541;28;20195;-56
2024/01/17 07:58:11;;;;;;;15.63;9.93;;;;;;;-144.30;66.65;86605.31;5072404;28;20231;-55
2024/01/17 08:00:38;;;;;;;17.07;10.13;;;;;;;-144.30;66.77;86609.28;5072340;28;20188;-65
2024/01/17 08:03:05;;;;;;;17.77;9.97;;;;;;;-144.30;66.73;86617.25;5072394;28;20207;-67
2024/01/17 08:05:34;;;;;;;12.07;9.90;;;;;;;-144.30;66.56;86617.25;5072270;28;20192;-64
2024/01/17 08:08:01;;;;;;;24.10;10.20;;;;;;;-144.30;65.98;86599.34;5072179;28;20206;-66
2024/01/17 08:10:28;;;;;;;22.50;10.30;;;;;;;-144.30;66.35;86589.41;5072420;28;20192;-64
2024/01/17 08:12:55;;;;;;;17.57;9.87;;;;;;;-144.30;66.73;86601.34;5072155;28;20196;-65
2024/01/17 08:15:22;;;;;;;15.47;10.50;;;;;;;-144.30;66.48;86557.59;5072045;28;20230;-54
2024/01/17 08:17:50;;;;;;;14.33;9.47;;;;;;;-144.30;66.12;86571.50;5071790;28;20223;-56
2024/01/17 08:20:17;;;;;;;16.43;10.50;;;;;;;-144.30;66.34;86579.47;5072223;28;20752;-55
2024/01/17 08:22:45;;;;;;;16.63;10.90;;;;;;;-144.30;65.80;86617.25;5071897;28;20199;-56
2024/01/17 08:25:14;;;;;;;19.07;11.73;;;;;;;-144.30;65.15;86635.13;5071934;28;20197;-65
2024/01/17 08:27:41;;;;;;;22.20;11.67;;;;;;;-144.30;65.67;86553.59;5071560;28;20231;-63
2024/01/17 08:30:10;;;;;;;20.53;12.53;;;;;;;-144.30;65.63;86577.47;5071815;28;20199;-56
2024/01/17 08:32:37;;;;;;;28.70;13.87;;;;;;;-144.30;65.86;86581.44;5072032;28;20558;-56
2024/01/17 08:35:05;;;;;;;21.87;12.83;;;;;;;-144.30;65.34;86543.66;5071690;28;20216;-56
2024/01/17 08:37:32;;;;;;;26.63;12.87;;;;;;;-144.30;64.79;86509.84;5071930;28;20594;-55
2024/01/17 08:40:00;;;;;;;28.57;13.70;;;;;;;-144.30;64.83;86575.47;5071658;28;20203;-65
2024/01/17 08:42:27;;;;;;;31.10;13.60;;;;;;;-144.30;64.85;86563.56;5071581;28;20265;-66
2024/01/17 08:44:54;;;;;;;20.47;13.53;;;;;;;-144.30;65.07;86513.84;5071397;28;20242;-66
2024/01/17 08:47:21;;;;;;;22.40;13.10;;;;;;;-144.30;64.69;86509.84;5071526;28;20196;-65
2024/01/17 08:49:48;;;;;;;27.60;13.70;;;;;;;-144.30;64.26;86561.56;5071475;28;20607;-66
2024/01/17 08:52:15;;;;;;;20.20;13.40;;;;;;;-144.30;64.12;86555.59;5071415;28;20291;-65
2024/01/17 08:54:42;;;;;;;23.10;13.43;;;;;;;-144.30;63.61;86547.66;5070971;28;20229;-65
2024/01/17 08:57:10;;;;;;;21.37;13.83;;;;;;;-144.30;63.58;86573.50;5071432;28;20196;-65
2024/01/17 08:59:37;;;;;;;21.93;13.63;;;;;;;-144.30;63.35;86521.78;5071413;28;20200;-65
2024/01/17 09:02:04;;;;;;;21.50;13.70;;;;;;;-144.30;63.14;86509.84;5071258;28;20245;-65
2024/01/17 09:04:32;;;;;;;23.63;14.23;;;;;;;-144.30;62.71;86497.94;5071310;28;20686;-65
2024/01/17 09:06:59;;;;;;;26.37;13.80;;;;;;;-144.30;62.80;86491.97;5068258;28;20206;-65
2024/01/17 09:09:26;;;;;;;24.97;13.87;;;;;;;-144.30;63.23;86513.84;5062544;28;20204;-66
2024/01/17 09:11:54;;;;;;;26.70;13.30;;;;;;;-144.30;62.25;86547.66;5063002;28;20197;-65
2024/01/17 09:14:24;;;;;;;21.47;12.13;;;;;;;-144.30;62.27;86509.84;5052594;28;20220;-66
2024/01/17 09:16:52;;;;;;;24.37;13.93;;;;;;;-144.30;62.17;86470.09;5069915;28;20739;-65
2024/01/17 09:19:20;;;;;;;25.17;13.63;;;;;;;-144.30;62.53;86541.69;5070450;28;20235;-65
2024/01/17 09:21:47;;;;;;;22.00;13.13;;;;;;;-144.30;62.90;86527.75;5059823;28;20231;-65
2024/01/17 09:24:14;;;;;;;37.20;14.27;;;;;;;-144.30;63.43;86517.81;5068323;28;20214;-64
2024/01/17 09:26:41;;;;;;;21.37;13.13;;;;;;;-144.30;62.80;86521.78;5055809;28;20228;-55
2024/01/17 09:29:08;;;;;;;30.73;15.50;;;;;;;-144.30;62.34;86511.84;5050490;28;20279;-55
2024/01/17 09:31:37;;;;;;;30.93;14.83;;;;;;;-144.30;62.32;86499.91;5050610;28;20196;-55
2024/01/17 09:34:04;;;;;;;25.33;15.03;;;;;;;-144.30;61.85;86505.88;5050345;28;20235;-56
2024/01/17 09:36:31;;;;;;;27.93;15.60;;;;;;;-144.30;61.93;86521.78;5066215;28;20426;-55
2024/01/17 09:38:58;;;;;;;25.73;15.40;;;;;;;-144.30;61.87;86482.03;5090868;28;20196;-55
2024/01/17 09:41:25;;;;;;;29.83;16.17;;;;;;;-144.30;61.30;86491.97;5090703;28;20297;-65
2024/01/17 09:43:52;;;;;;;33.07;18.10;;;;;;;-144.30;61.11;86474.06;5090519;28;20187;-65
2024/01/17 09:46:19;;;;;;;38.07;18.30;;;;;;;-144.30;60.97;86521.78;5090540;28;20195;-65
2024/01/17 09:48:48;;;;;;;33.87;18.53;;;;;;;-144.30;60.84;86513.84;5090450;28;20195;-65
2024/01/17 09:51:16;;;;;;;35.40;19.03;;;;;;;-144.30;61.21;86519.81;5090349;28;20202;-55
2024/01/17 09:53:45;;;;;;;35.60;18.33;;;;;;;-144.30;60.92;86517.81;5090302;28;20248;-56
2024/01/17 09:56:14;;;;;;;31.17;18.40;;;;;;;-144.30;61.03;86486.00;5090189;28;20191;-55
2024/01/17 09:58:44;;;;;;;41.80;17.57;;;;;;;-144.30;60.62;86501.91;5090383;28;20210;-55
2024/01/17 10:01:14;;;;;;;29.73;16.53;;;;;;;-144.30;60.39;86476.06;5090430;28;20199;-55
2024/01/17 10:03:43;;;;;;;31.93;16.43;;;;;;;-144.30;60.04;86434.28;5090095;28;20195;-56
2024/01/17 10:06:15;;;;;;;21.60;12.60;;;;;;;-144.30;59.61;86478.03;5090193;28;20200;-56
2024/01/17 10:08:43;;;;;;;15.50;10.00;;;;;;;-144.30;58.93;86478.03;5090370;28;20227;-55
2024/01/17 10:11:10;;;;;;;14.67;10.17;;;;;;;-144.30;58.98;86460.16;5090097;28;20282;-55
2024/01/17 10:13:37;;;;;;;20.87;10.80;;;;;;;-144.30;59.39;86472.06;5090162;28;20191;-54
2024/01/17 10:16:04;;;;;;;24.27;11.00;;;;;;;-144.30;59.83;86458.16;5089805;28;20689;-55
2024/01/17 10:18:33;;;;;;;19.40;12.43;;;;;;;-144.30;60.06;86478.03;5089767;28;20686;-57
2024/01/17 10:20:59;;;;;;;17.03;11.70;;;;;;;-144.30;60.89;86493.94;5089974;28;20643;-56
2024/01/17 10:23:28;;;;;;;19.70;11.17;;;;;;;-144.30;60.40;86450.19;5089942;28;20196;-55
2024/01/17 10:25:56;;;;;;;17.77;10.67;;;;;;;-144.30;60.65;86478.03;5089844;28;20198;-54
2024/01/17 10:28:24;;;;;;;20.37;11.33;;;;;;;-144.30;60.87;86462.13;5089617;28;20227;-56
2024/01/17 10:30:53;;;;;;;26.40;11.27;;;;;;;-144.30;61.58;86452.19;5089690;28;20290;-54
2024/01/17 10:33:20;;;;;;;16.47;11.40;;;;;;;-144.30;61.01;86378.63;5089847;28;20199;-55
2024/01/17 10:35:48;;;;;;;20.27;10.93;;;;;;;-144.30;60.71;86460.16;5089862;28;20223;-55
2024/01/17 10:38:15;;;;;;;23.70;12.23;;;;;;;-144.30;61.45;86420.38;5089736;28;20203;-57
2024/01/17 10:40:44;;;;;;;20.27;12.63;;;;;;;-144.30;60.93;86458.16;5089905;28;20195;-56
2024/01/17 10:43:13;;;;;;;18.43;11.17;;;;;;;-144.30;61.45;86406.44;5089742;28;20199;-65
2024/01/17 10:45:42;;;;;;;21.80;11.83;;;;;;;-144.30;60.99;86472.06;5089648;28;20188;-66
2024/01/17 10:48:09;;;;;;;15.57;10.87;;;;;;;-144.30;61.45;86458.16;5089654;28;20295;-66
2024/01/17 10:50:36;;;;;;;22.47;13.70;;;;;;;-144.30;61.11;86462.13;5089667;28;20199;-65
2024/01/17 10:53:06;;;;;;;18.90;13.00;;;;;;;-144.30;61.03;86460.16;5089488;28;20673;-66
2024/01/17 10:55:35;;;;;;;27.27;15.98;;;;;;;-144.30;61.86;86434.28;5088457;28;20469;-55
2024/01/17 10:58:09;;;;;;;26.27;14.17;;;;;;;-144.30;60.83;86428.31;5073361;28;20199;-56
2024/01/17 11:00:38;;;;;;;27.23;13.33;;;;;;;-144.30;60.93;86424.34;5068979;28;20622;-57
2024/01/17 11:03:09;;;;;;;21.00;13.57;;;;;;;-144.30;60.69;86460.16;5068931;28;20196;-56